createdAt,value
2019-03-30T00:00:01.177Z,1.70
2019-03-30T00:02:30.303Z,1.90
2019-03-30T00:04:59.189Z,1.70
2019-03-30T00:07:29.120Z,1.77
2019-03-30T00:09:58.010Z,2.07
2019-03-30T00:12:26.888Z,1.43
2019-03-30T00:14:56.052Z,1.80
2019-03-30T00:17:26.478Z,1.60
2019-03-30T00:19:55.339Z,1.90
2019-03-30T00:22:25.304Z,1.70
2019-03-30T00:24:54.211Z,1.90
2019-03-30T00:27:23.090Z,2.03
2019-03-30T00:29:51.955Z,1.70
2019-03-30T00:32:21.254Z,1.97
2019-03-30T00:34:50.128Z,1.90
2019-03-30T00:37:19.399Z,1.90
2019-03-30T00:39:48.312Z,2.00
2019-03-30T00:42:17.189Z,1.90
2019-03-30T00:44:46.051Z,1.80
2019-03-30T00:47:15.228Z,1.67
2019-03-30T00:49:49.620Z,1.83
2019-03-30T00:52:15.833Z,1.67
2019-03-30T00:54:44.999Z,1.93
2019-03-30T00:57:13.873Z,1.73
2019-03-30T00:59:43.138Z,1.90
2019-03-30T01:02:11.996Z,1.60
2019-03-30T01:04:40.890Z,1.90
2019-03-30T01:07:09.760Z,1.60
2019-03-30T01:09:38.623Z,1.70
2019-03-30T01:12:07.468Z,1.83
2019-03-30T01:14:36.356Z,2.07
2019-03-30T01:17:05.262Z,1.90
2019-03-30T01:19:34.579Z,2.00
2019-03-30T01:22:03.392Z,2.00
2019-03-30T01:24:32.267Z,1.83
2019-03-30T01:27:01.099Z,2.20
2019-03-30T01:29:29.987Z,1.80
2019-03-30T01:31:58.809Z,1.93
2019-03-30T01:34:27.703Z,2.13
2019-03-30T01:36:57.726Z,1.90
2019-03-30T01:39:27.957Z,2.00
2019-03-30T01:41:56.780Z,1.73
2019-03-30T01:44:25.696Z,2.20
2019-03-30T01:46:54.540Z,1.63
2019-03-30T01:49:23.421Z,1.90
2019-03-30T01:51:52.270Z,1.90
2019-03-30T01:54:21.156Z,2.30
2019-03-30T01:56:49.993Z,2.00
2019-03-30T01:59:18.841Z,1.70
2019-03-30T02:01:48.053Z,2.20
2019-03-30T02:04:17.037Z,2.23
2019-03-30T02:06:45.878Z,2.00
2019-03-30T02:09:14.748Z,1.83
2019-03-30T02:11:43.585Z,1.93
2019-03-30T02:14:12.435Z,1.80
2019-03-30T02:16:41.587Z,1.83
2019-03-30T02:19:10.710Z,1.90
2019-03-30T02:21:39.617Z,2.00
2019-03-30T02:24:08.491Z,1.80
2019-03-30T02:26:37.352Z,2.03
2019-03-30T02:29:06.205Z,1.83
2019-03-30T02:31:53.270Z,1.93
2019-03-30T02:34:22.098Z,2.03
2019-03-30T02:36:50.939Z,2.27
2019-03-30T02:39:19.815Z,2.10
2019-03-30T02:41:48.733Z,2.00
2019-03-30T02:44:17.598Z,2.20
2019-03-30T02:46:46.722Z,2.20
2019-03-30T02:49:15.621Z,2.00
2019-03-30T02:51:44.493Z,1.87
2019-03-30T02:54:14.355Z,1.67
2019-03-30T02:56:43.455Z,1.80
2019-03-30T02:59:12.311Z,1.87
2019-03-30T03:01:41.516Z,1.90
2019-03-30T03:04:10.768Z,1.97
2019-03-30T03:06:40.056Z,1.80
2019-03-30T03:09:09.013Z,1.90
2019-03-30T03:11:37.888Z,2.10
2019-03-30T03:14:06.707Z,2.50
2019-03-30T03:16:35.601Z,1.80
2019-03-30T03:19:04.383Z,2.20
2019-03-30T03:21:33.244Z,2.13
2019-03-30T03:24:02.061Z,1.97
2019-03-30T03:26:31.015Z,2.20
2019-03-30T03:29:00.436Z,1.93
2019-03-30T03:31:29.222Z,2.43
2019-03-30T03:33:58.064Z,2.27
2019-03-30T03:36:27.232Z,2.40
2019-03-30T03:38:57.470Z,2.03
2019-03-30T03:41:26.674Z,2.00
2019-03-30T03:43:55.867Z,2.47
2019-03-30T03:46:25.253Z,2.10
2019-03-30T03:48:54.110Z,2.03
2019-03-30T03:51:26.124Z,2.13
2019-03-30T03:53:55.179Z,2.20
2019-03-30T03:56:28.150Z,2.27
2019-03-30T03:59:00.675Z,2.03
2019-03-30T04:01:34.064Z,2.20
2019-03-30T04:04:06.872Z,2.07
2019-03-30T04:06:40.085Z,1.87
2019-03-30T04:09:09.177Z,2.00
2019-03-30T04:11:41.945Z,2.27
2019-03-30T04:14:15.374Z,2.20
2019-03-30T04:16:44.277Z,1.50
2019-03-30T04:19:13.101Z,2.23
2019-03-30T04:21:44.194Z,2.27
2019-03-30T04:24:12.764Z,2.30
2019-03-30T04:26:41.635Z,2.13
2019-03-30T04:29:10.483Z,1.80
2019-03-30T04:31:39.731Z,2.03
2019-03-30T04:36:36.896Z,2.17
2019-03-30T04:39:06.081Z,2.10
2019-03-30T04:41:34.954Z,2.10
2019-03-30T04:44:03.809Z,2.13
2019-03-30T04:46:32.797Z,2.13
2019-03-30T04:49:01.901Z,2.00
2019-03-30T04:51:30.780Z,2.27
2019-03-30T04:53:59.578Z,2.07
2019-03-30T04:56:28.451Z,2.30
2019-03-30T04:58:58.531Z,1.97
2019-03-30T05:01:28.385Z,2.40
2019-03-30T05:03:57.238Z,2.20
2019-03-30T05:06:26.133Z,2.40
2019-03-30T05:08:54.981Z,2.30
2019-03-30T05:11:23.885Z,1.93
2019-03-30T05:13:52.731Z,1.97
2019-03-30T05:16:21.592Z,1.83
2019-03-30T05:18:50.469Z,2.30
2019-03-30T05:21:19.607Z,2.10
2019-03-30T05:23:48.444Z,2.20
2019-03-30T05:26:17.329Z,2.17
2019-03-30T05:28:46.208Z,2.17
2019-03-30T05:31:16.152Z,2.00
2019-03-30T05:33:44.991Z,2.20
2019-03-30T05:36:14.174Z,2.13
2019-03-30T05:38:43.315Z,1.87
2019-03-30T05:41:12.160Z,2.23
2019-03-30T05:43:40.983Z,2.40
2019-03-30T05:46:10.223Z,2.33
2019-03-30T05:48:39.082Z,2.37
2019-03-30T05:51:07.993Z,2.27
2019-03-30T05:53:36.818Z,2.07
2019-03-30T05:56:05.712Z,1.87
2019-03-30T05:58:34.517Z,2.20
2019-03-30T06:01:03.998Z,2.20
2019-03-30T06:03:32.815Z,2.20
2019-03-30T06:06:01.701Z,2.23
2019-03-30T06:08:30.538Z,2.17
2019-03-30T06:11:01.619Z,2.00
2019-03-30T06:13:30.425Z,2.20
2019-03-30T06:15:59.293Z,2.37
2019-03-30T06:18:28.507Z,1.93
2019-03-30T06:20:57.397Z,2.00
2019-03-30T06:23:27.574Z,2.20
2019-03-30T06:25:56.471Z,2.40
2019-03-30T06:28:25.365Z,2.07
2019-03-30T06:30:54.177Z,2.23
2019-03-30T06:33:23.031Z,2.17
2019-03-30T06:35:51.880Z,2.47
2019-03-30T06:38:21.102Z,2.57
2019-03-30T06:40:49.998Z,2.43
2019-03-30T06:43:18.887Z,2.07
2019-03-30T06:45:48.400Z,1.90
2019-03-30T06:48:18.817Z,1.97
2019-03-30T06:50:47.691Z,2.30
2019-03-30T06:53:16.814Z,2.20
2019-03-30T06:55:45.929Z,2.43
2019-03-30T06:58:14.761Z,2.33
2019-03-30T07:00:45.035Z,2.40
2019-03-30T07:03:14.438Z,2.10
2019-03-30T07:05:43.762Z,2.30
2019-03-30T07:08:16.370Z,2.10
2019-03-30T07:10:46.919Z,2.30
2019-03-30T07:13:16.113Z,2.43
2019-03-30T07:15:49.854Z,2.13
2019-03-30T07:18:19.660Z,2.57
2019-03-30T07:20:48.444Z,2.10
2019-03-30T07:23:17.275Z,2.37
2019-03-30T07:25:46.091Z,2.37
2019-03-30T07:28:25.684Z,2.30
2019-03-30T07:30:54.885Z,2.37
2019-03-30T07:33:24.863Z,2.27
2019-03-30T07:35:53.917Z,2.50
2019-03-30T07:38:22.754Z,2.40
2019-03-30T07:40:51.531Z,2.77
2019-03-30T07:43:20.386Z,2.80
2019-03-30T07:45:49.185Z,2.60
2019-03-30T07:48:18.023Z,3.20
2019-03-30T07:50:46.964Z,2.73
2019-03-30T07:53:26.424Z,2.50
2019-03-30T07:55:46.957Z,2.57
2019-03-30T07:58:15.827Z,2.63
2019-03-30T08:00:44.652Z,2.97
2019-03-30T08:03:13.520Z,2.53
2019-03-30T08:05:43.059Z,2.57
2019-03-30T08:08:13.308Z,2.63
2019-03-30T08:10:42.784Z,2.83
2019-03-30T08:13:11.635Z,2.77
2019-03-30T08:15:40.469Z,2.93
2019-03-30T08:18:09.385Z,3.17
2019-03-30T08:20:38.628Z,2.77
2019-03-30T08:23:07.496Z,2.83
2019-03-30T08:25:36.333Z,2.80
2019-03-30T08:28:05.226Z,2.83
2019-03-30T08:30:34.831Z,3.03
2019-03-30T08:33:03.756Z,2.87
2019-03-30T08:35:32.642Z,3.03
2019-03-30T08:38:01.556Z,3.37
2019-03-30T08:40:30.412Z,3.57
2019-03-30T08:42:59.261Z,3.57
2019-03-30T08:45:29.631Z,3.13
2019-03-30T08:47:59.499Z,3.17
2019-03-30T08:50:28.532Z,3.27
2019-03-30T08:52:57.475Z,2.80
2019-03-30T08:55:26.332Z,2.87
2019-03-30T08:57:55.255Z,3.10
2019-03-30T09:00:49.496Z,2.97
2019-03-30T09:03:18.459Z,3.07
2019-03-30T09:05:47.256Z,3.10
2019-03-30T09:08:16.098Z,3.47
2019-03-30T09:10:44.981Z,3.30
2019-03-30T09:13:13.920Z,3.43
2019-03-30T09:15:42.734Z,3.27
2019-03-30T09:18:11.603Z,3.63
2019-03-30T09:20:40.405Z,3.87
2019-03-30T09:23:09.247Z,3.43
2019-03-30T09:25:38.511Z,3.77
2019-03-30T09:28:07.406Z,3.93
2019-03-30T09:30:36.484Z,3.63
2019-03-30T09:33:05.862Z,3.87
2019-03-30T09:35:34.795Z,3.93
2019-03-30T09:38:03.809Z,3.83
2019-03-30T09:40:33.359Z,3.70
2019-03-30T09:43:03.371Z,4.00
2019-03-30T09:45:32.204Z,3.90
2019-03-30T09:48:00.998Z,4.40
2019-03-30T09:50:29.846Z,4.07
2019-03-30T09:52:58.673Z,4.33
2019-03-30T09:55:27.711Z,4.33
2019-03-30T09:57:56.983Z,4.77
2019-03-30T10:00:26.312Z,4.43
2019-03-30T10:02:55.205Z,5.20
2019-03-30T10:05:24.023Z,4.83
2019-03-30T10:07:54.024Z,5.00
2019-03-30T10:10:22.900Z,4.80
2019-03-30T10:12:51.747Z,5.23
2019-03-30T10:15:20.799Z,4.80
2019-03-30T10:17:49.720Z,5.20
2019-03-30T10:20:18.689Z,4.53
2019-03-30T10:22:47.703Z,5.00
2019-03-30T10:25:16.721Z,5.07
2019-03-30T10:27:46.861Z,4.73
2019-03-30T10:30:15.930Z,4.67
2019-03-30T10:32:45.184Z,4.77
2019-03-30T10:35:14.022Z,4.77
2019-03-30T10:37:43.169Z,4.93
2019-03-30T10:40:12.275Z,4.33
2019-03-30T10:42:41.116Z,4.43
2019-03-30T10:45:10.267Z,5.23
2019-03-30T10:47:39.117Z,4.80
2019-03-30T10:50:09.047Z,4.93
2019-03-30T10:52:43.361Z,5.13
2019-03-30T10:55:12.224Z,5.07
2019-03-30T10:57:42.228Z,5.03
2019-03-30T11:00:17.025Z,5.43
2019-03-30T11:02:46.791Z,5.43
2019-03-30T11:05:15.807Z,5.03
2019-03-30T11:07:44.684Z,5.73
2019-03-30T11:10:13.544Z,5.13
2019-03-30T11:12:42.574Z,5.00
2019-03-30T11:15:11.445Z,5.80
2019-03-30T11:17:40.340Z,5.97
2019-03-30T11:20:09.288Z,5.70
2019-03-30T11:22:38.496Z,5.60
2019-03-30T11:25:08.998Z,5.23
2019-03-30T11:27:38.278Z,6.20
2019-03-30T11:30:07.358Z,6.17
2019-03-30T11:32:36.238Z,9.53
2019-03-30T11:35:06.039Z,8.33
2019-03-30T11:37:34.909Z,7.60
2019-03-30T11:40:04.395Z,6.40
2019-03-30T11:42:33.347Z,5.83
2019-03-30T11:45:03.483Z,6.13
2019-03-30T11:47:32.748Z,5.53
2019-03-30T11:50:01.710Z,5.43
2019-03-30T11:52:30.647Z,5.67
2019-03-30T11:54:59.525Z,6.57
2019-03-30T11:57:28.549Z,5.50
2019-03-30T11:59:57.558Z,5.57
2019-03-30T12:02:28.101Z,5.47
2019-03-30T12:04:59.651Z,5.20
2019-03-30T12:07:29.049Z,5.70
2019-03-30T12:09:59.835Z,5.77
2019-03-30T12:12:28.728Z,5.20
2019-03-30T12:14:57.575Z,5.07
2019-03-30T12:17:26.431Z,4.70
2019-03-30T12:19:55.318Z,4.63
2019-03-30T12:22:24.186Z,4.40
2019-03-30T12:24:53.029Z,4.43
2019-03-30T12:27:22.260Z,4.73
2019-03-30T12:29:51.331Z,4.23
2019-03-30T12:32:20.204Z,3.80
2019-03-30T12:34:50.532Z,3.40
2019-03-30T12:37:19.548Z,3.90
2019-03-30T12:39:48.594Z,3.17
2019-03-30T12:42:17.440Z,3.00
2019-03-30T12:44:46.411Z,2.80
2019-03-30T12:47:15.268Z,2.70
2019-03-30T12:49:45.365Z,2.70
2019-03-30T12:52:14.497Z,2.43
2019-03-30T12:54:43.386Z,2.90
2019-03-30T12:57:12.216Z,2.73
2019-03-30T12:59:41.296Z,3.13
2019-03-30T13:02:11.581Z,2.87
2019-03-30T13:04:40.487Z,3.10
2019-03-30T13:07:09.645Z,3.10
2019-03-30T13:09:38.498Z,3.00
2019-03-30T13:12:07.346Z,3.07
2019-03-30T13:14:36.248Z,3.00
2019-03-30T13:17:07.547Z,2.93
2019-03-30T13:19:36.434Z,3.00
2019-03-30T13:22:05.259Z,2.97
2019-03-30T13:24:34.328Z,2.97
2019-03-30T13:27:04.618Z,3.10
2019-03-30T13:29:33.890Z,2.43
2019-03-30T13:32:02.737Z,3.40
2019-03-30T13:34:31.658Z,3.07
2019-03-30T13:37:14.002Z,2.87
2019-03-30T13:39:43.142Z,3.00
2019-03-30T13:42:14.001Z,2.90
2019-03-30T13:44:42.919Z,3.27
2019-03-30T13:47:12.241Z,3.07
2019-03-30T13:49:41.273Z,3.20
2019-03-30T13:52:10.271Z,2.83
2019-03-30T13:54:39.322Z,2.83
2019-03-30T13:57:08.244Z,2.67
2019-03-30T13:59:37.644Z,2.53
2019-03-30T14:02:07.068Z,2.67
2019-03-30T14:04:35.944Z,2.60
2019-03-30T14:07:06.278Z,2.70
2019-03-30T14:09:35.202Z,2.30
2019-03-30T14:12:05.640Z,2.60
2019-03-30T14:14:35.225Z,2.33
2019-03-30T14:17:05.579Z,2.60
2019-03-30T14:19:34.717Z,2.27
2019-03-30T14:22:03.715Z,2.57
2019-03-30T14:24:32.658Z,2.40
2019-03-30T14:27:01.520Z,2.20
2019-03-30T14:29:30.385Z,2.27
2019-03-30T14:31:59.286Z,2.17
2019-03-30T14:34:28.207Z,2.00
2019-03-30T14:36:57.037Z,2.23
2019-03-30T14:39:26.162Z,2.30
2019-03-30T14:41:54.998Z,2.43
2019-03-30T14:44:25.179Z,2.50
2019-03-30T14:46:54.029Z,2.63
2019-03-30T14:49:22.940Z,2.70
2019-03-30T14:51:52.480Z,2.60
2019-03-30T14:54:21.849Z,2.93
2019-03-30T14:56:50.715Z,2.43
2019-03-30T14:59:19.681Z,2.30
2019-03-30T15:01:49.323Z,2.50
2019-03-30T15:04:19.484Z,2.33
2019-03-30T15:06:48.392Z,2.30
2019-03-30T15:09:17.314Z,2.27
2019-03-30T15:11:46.403Z,2.33
2019-03-30T15:14:15.386Z,2.13
2019-03-30T15:16:44.263Z,2.50
2019-03-30T15:19:13.099Z,2.67
2019-03-30T15:21:42.159Z,2.83
2019-03-30T15:24:11.146Z,2.30
2019-03-30T15:26:40.471Z,3.00
2019-03-30T15:29:10.748Z,3.10
2019-03-30T15:31:43.849Z,2.40
2019-03-30T15:34:16.034Z,3.20
2019-03-30T15:36:44.929Z,2.57
2019-03-30T15:39:13.784Z,2.70
2019-03-30T15:41:43.000Z,2.87
2019-03-30T15:44:11.816Z,2.60
2019-03-30T15:46:40.702Z,2.50
2019-03-30T15:49:09.891Z,2.40
2019-03-30T15:51:38.871Z,2.07
2019-03-30T15:54:07.697Z,2.67
2019-03-30T15:56:36.601Z,2.23
2019-03-30T15:59:06.439Z,2.33
2019-03-30T16:01:35.339Z,2.40
2019-03-30T16:04:04.183Z,2.37
2019-03-30T16:06:33.462Z,2.60
2019-03-30T16:09:05.528Z,2.00
2019-03-30T16:11:34.506Z,2.23
2019-03-30T16:14:03.438Z,2.80
2019-03-30T16:16:32.556Z,2.57
2019-03-30T16:19:01.433Z,2.83
2019-03-30T16:21:30.391Z,3.07
2019-03-30T16:23:59.215Z,2.57
2019-03-30T16:26:41.327Z,2.53
2019-03-30T16:29:00.624Z,2.00
2019-03-30T16:31:29.494Z,2.37
2019-03-30T16:33:58.321Z,2.20
2019-03-30T16:36:27.556Z,2.20
2019-03-30T16:38:56.477Z,2.07
2019-03-30T16:41:25.347Z,2.37
2019-03-30T16:43:54.268Z,2.20
2019-03-30T16:46:23.239Z,2.20
2019-03-30T16:48:52.052Z,2.17
2019-03-30T16:51:20.970Z,2.03
2019-03-30T16:53:49.905Z,2.43
2019-03-30T16:56:18.790Z,1.93
2019-03-30T16:58:47.640Z,2.20
2019-03-30T17:01:16.540Z,1.67
2019-03-30T17:03:45.470Z,2.00
2019-03-30T17:06:14.479Z,1.80
2019-03-30T17:08:43.324Z,1.90
2019-03-30T17:11:12.524Z,2.03
2019-03-30T17:13:41.364Z,2.00
2019-03-30T17:16:10.340Z,1.73
2019-03-30T17:18:39.217Z,2.20
2019-03-30T17:21:09.383Z,1.90
2019-03-30T17:23:38.272Z,1.70
2019-03-30T17:26:07.124Z,1.83
2019-03-30T17:28:36.419Z,1.80
2019-03-30T17:31:07.934Z,2.33
2019-03-30T17:33:36.814Z,2.07
2019-03-30T17:36:05.734Z,2.20
2019-03-30T17:38:34.600Z,2.20
2019-03-30T17:41:03.510Z,2.60
2019-03-30T17:43:32.826Z,3.03
2019-03-30T17:46:01.660Z,2.40
2019-03-30T17:48:30.556Z,2.10
2019-03-30T17:51:09.525Z,2.10
2019-03-30T17:53:47.499Z,2.20
2019-03-30T17:56:17.248Z,2.50
2019-03-30T17:58:46.149Z,2.10
2019-03-30T18:01:15.895Z,2.20
2019-03-30T18:03:44.935Z,2.33
2019-03-30T18:06:13.788Z,2.40
2019-03-30T18:08:42.646Z,2.53
2019-03-30T18:11:11.483Z,2.13
2019-03-30T18:13:40.497Z,2.37
2019-03-30T18:16:09.330Z,2.90
2019-03-30T18:18:38.234Z,2.77
2019-03-30T18:21:08.272Z,2.50
2019-03-30T18:23:37.205Z,2.57
2019-03-30T18:26:06.054Z,2.53
2019-03-30T18:28:35.100Z,2.47
2019-03-30T18:31:03.949Z,3.63
2019-03-30T18:33:33.258Z,4.33
2019-03-30T18:36:03.020Z,5.60
2019-03-30T18:38:36.666Z,3.97
2019-03-30T18:41:06.902Z,3.53
2019-03-30T18:43:36.699Z,2.90
2019-03-30T18:46:05.556Z,3.20
2019-03-30T18:48:34.645Z,2.90
2019-03-30T18:51:03.753Z,2.80
2019-03-30T18:53:32.674Z,2.40
2019-03-30T18:56:01.508Z,2.27
2019-03-30T18:58:41.061Z,2.90
2019-03-30T19:01:01.527Z,2.17
2019-03-30T19:03:30.512Z,2.43
2019-03-30T19:05:59.710Z,2.30
2019-03-30T19:08:29.109Z,2.07
2019-03-30T19:10:57.960Z,2.20
2019-03-30T19:13:26.896Z,1.80
2019-03-30T19:15:55.761Z,1.87
2019-03-30T19:18:24.749Z,2.33
2019-03-30T19:20:54.081Z,1.80
2019-03-30T19:23:22.975Z,1.60
2019-03-30T19:25:53.096Z,1.70
2019-03-30T19:28:22.945Z,1.87
2019-03-30T19:30:51.900Z,1.97
2019-03-30T19:33:20.866Z,1.70
2019-03-30T19:35:50.171Z,1.80
2019-03-30T19:38:19.417Z,2.00
2019-03-30T19:40:48.475Z,1.90
2019-03-30T19:43:18.458Z,1.87
2019-03-30T19:45:47.980Z,2.07
2019-03-30T19:48:17.197Z,1.90
2019-03-30T19:50:46.499Z,1.93
2019-03-30T19:53:16.748Z,1.73
2019-03-30T19:55:45.766Z,1.87
2019-03-30T19:58:14.862Z,2.13
2019-03-30T20:00:43.756Z,2.03
2019-03-30T20:03:12.636Z,1.80
2019-03-30T20:05:44.481Z,1.90
2019-03-30T20:08:12.867Z,1.70
2019-03-30T20:10:41.898Z,2.03
2019-03-30T20:13:11.303Z,1.60
2019-03-30T20:15:40.431Z,1.73
2019-03-30T20:18:09.365Z,1.77
2019-03-30T20:20:38.353Z,1.87
2019-03-30T20:23:08.874Z,1.77
2019-03-30T20:25:37.749Z,1.67
2019-03-30T20:28:06.618Z,1.70
2019-03-30T20:30:35.514Z,1.70
2019-03-30T20:33:04.364Z,1.43
2019-03-30T20:35:33.332Z,1.80
2019-03-30T20:38:02.206Z,1.63
2019-03-30T20:40:31.088Z,1.73
2019-03-30T20:42:59.916Z,1.63
2019-03-30T20:45:29.185Z,1.70
2019-03-30T20:47:58.114Z,1.73
2019-03-30T20:50:27.000Z,1.70
2019-03-30T20:52:55.960Z,1.70
2019-03-30T20:55:24.852Z,1.73
2019-03-30T20:57:54.759Z,2.00
2019-03-30T21:00:23.989Z,1.90
2019-03-30T21:02:52.894Z,1.70
2019-03-30T21:05:21.848Z,1.70
2019-03-30T21:07:50.715Z,1.80
2019-03-30T21:10:19.617Z,1.77
2019-03-30T21:12:48.839Z,1.53
2019-03-30T21:15:17.772Z,1.70
2019-03-30T21:17:46.777Z,1.80
2019-03-30T21:20:15.689Z,1.80
2019-03-30T21:22:44.499Z,1.60
2019-03-30T21:25:13.405Z,1.77
2019-03-30T21:27:42.333Z,1.73
2019-03-30T21:30:12.915Z,1.93
2019-03-30T21:32:41.940Z,1.73
2019-03-30T21:35:12.745Z,1.70
2019-03-30T21:37:41.613Z,1.60
2019-03-30T21:40:10.807Z,1.73
2019-03-30T21:42:39.677Z,1.80
2019-03-30T21:45:10.360Z,1.70
2019-03-30T21:47:39.533Z,1.70
2019-03-30T21:50:08.685Z,1.80
2019-03-30T21:52:37.564Z,1.70
2019-03-30T21:55:07.215Z,1.90
2019-03-30T21:57:37.435Z,1.97
2019-03-30T22:00:10.557Z,1.90
2019-03-30T22:02:38.199Z,1.90
2019-03-30T22:05:09.317Z,1.93
2019-03-30T22:07:38.681Z,1.77
2019-03-30T22:10:10.287Z,1.67
2019-03-30T22:12:43.121Z,2.10
2019-03-30T22:15:20.462Z,1.80
2019-03-30T22:17:49.634Z,1.80
2019-03-30T22:20:21.289Z,1.50
2019-03-30T22:22:49.636Z,1.47
2019-03-30T22:25:18.538Z,1.80
2019-03-30T22:27:47.431Z,2.33
2019-03-30T22:30:24.546Z,1.80
2019-03-30T22:32:47.153Z,1.90
2019-03-30T22:35:16.079Z,1.60
2019-03-30T22:37:46.135Z,1.80
2019-03-30T22:40:15.009Z,1.63
2019-03-30T22:42:43.956Z,2.00
2019-03-30T22:45:13.027Z,1.70
2019-03-30T22:47:41.925Z,1.50
2019-03-30T22:50:11.007Z,1.73
2019-03-30T22:52:40.145Z,1.77
2019-03-30T22:55:11.769Z,1.70
2019-03-30T22:57:40.965Z,1.60
2019-03-30T23:00:20.892Z,1.33
2019-03-30T23:02:51.971Z,1.37
2019-03-30T23:05:20.876Z,1.50
2019-03-30T23:07:49.696Z,1.90
2019-03-30T23:10:18.769Z,1.63
2019-03-30T23:12:47.720Z,1.50
2019-03-30T23:15:16.583Z,2.07
2019-03-30T23:17:45.821Z,2.00
2019-03-30T23:20:14.694Z,1.73
2019-03-30T23:22:43.593Z,1.43
2019-03-30T23:25:13.598Z,1.53
2019-03-30T23:27:43.055Z,1.83
2019-03-30T23:30:12.219Z,1.60
2019-03-30T23:32:41.289Z,1.50
2019-03-30T23:35:11.851Z,1.50
2019-03-30T23:37:41.114Z,1.63
2019-03-30T23:40:10.277Z,1.40
2019-03-30T23:42:39.175Z,1.33
2019-03-30T23:45:08.150Z,1.60
2019-03-30T23:47:37.185Z,1.57
2019-03-30T23:50:06.114Z,1.73
2019-03-30T23:52:35.302Z,1.67
2019-03-30T23:55:04.291Z,1.77
2019-03-30T23:57:33.170Z,1.60
